EIKN/NOC METAR and TAF weather

Enter ICAO airport designator
Station Type Date Time Source
EIKN METAR 2019/12/14 06:00 UTC NOAA

EIKN 140600Z 24013KT 220V280 4000 -RASN BKN010 BKN035 01/01 Q0980 NOSIG


Station Type Date Time Source
EIKN Decoded METAR 2019/12/14 06:00 UTC NOAA

Connaught, Ireland (EIKN) 53-54-37N 008-49-05W
Dec 14, 2019 - 01:00 AM EST / 2019.12.14 0600 UTC
Wind: from the WSW (240 degrees) at 15 MPH (13 KT) (direction variable):0
Visibility: 2 mile(s):0
Sky conditions: mostly cloudy
Weather: light rain, snow
Temperature: 33 F (1 C)
Windchill: 23 F (-5 C):1
Dew Point: 33 F (1 C)
Relative Humidity: 100%
Pressure (altimeter): 28.94 in. Hg (0980 hPa)
ob: EIKN 140600Z 24013KT 220V280 4000 -RASN BKN010 BKN035 01/01 Q0980 NOSIG
cycle: 6

Station Type Date Time Source
EIKN TAF 2019/12/14 06:41 UTC NOAA

TAF COR EIKN 140536Z 1406/1506 25018G28KT 9999 FEW015 BKN030
TEMPO 1406/1412 25024G38KT
TEMPO 1406/1412 7000 -SHRASNGS BKN010 SCT018CB PROB40
TEMPO 1406/1411 3000 SHRASNGS BKN007
BECMG 1413/1415 22012KT
BECMG 1416/1418 17007KT PROB40
TEMPO 1416/1419 3000 -SHRASN BKN005 SCT018CB PROB30
TEMPO 1416/1419 1200 -SHSN BKN003
TEMPO 1419/1502 3000 SHRASNGS BKN004 BKN014CB PROB40
TEMPO 1419/1503 0800 -SHSN FG BKN001 PROB40
TEMPO 1503/1506 0800 FG BKN001

Example: see airport list